Time;durP1;ratioP1;P1;durP2;ratioP2;P2;SDS_P1;SDS_P2;PMS_P1;PMS_P2;Temp;Humidity;BMP_temperature;BMP_pressure;BME280_temperature;BME280_humidity;BME280_pressure;Samples;Min_cycle;Max_cycle;Signal;HPM_P1;HPM_P2
2023/07/01 00:02:21;;;;;;;6.20;5.45;;;;;;;19.05;73.42;99375.16;1751319;80;21104;-76
2023/07/01 00:04:51;;;;;;;6.28;5.45;;;;;;;19.02;73.25;99372.95;1750201;80;21072;-75
2023/07/01 00:07:21;;;;;;;7.22;5.10;;;;;;;19.02;73.08;99374.34;1750561;81;21013;-77
2023/07/01 00:09:49;;;;;;;7.95;5.40;;;;;;;19.02;72.98;99372.11;1749971;80;21496;-76
2023/07/01 00:12:20;;;;;;;5.75;5.08;;;;;;;19.02;72.92;99374.89;1751394;80;21036;-77
2023/07/01 00:14:49;;;;;;;8.38;5.22;;;;;;;19.00;72.61;99380.16;1750012;80;21083;-76
2023/07/01 00:17:19;;;;;;;8.90;5.10;;;;;;;18.98;72.77;99385.16;1750094;80;21052;-76
2023/07/01 00:19:49;;;;;;;8.40;5.00;;;;;;;18.97;72.82;99377.11;1756105;80;21033;-76
2023/07/01 00:22:18;;;;;;;8.08;5.50;;;;;;;18.97;72.75;99385.44;1750175;81;21048;-75
2023/07/01 00:24:47;;;;;;;6.17;5.37;;;;;;;18.97;72.63;99390.99;1750227;80;21476;-74
2023/07/01 00:27:16;;;;;;;5.97;5.30;;;;;;;18.95;72.42;99386.27;1751369;80;21079;-77
2023/07/01 00:29:45;;;;;;;7.08;4.83;;;;;;;18.93;72.39;99389.88;1754335;80;21504;-76
2023/07/01 00:32:15;;;;;;;7.80;5.35;;;;;;;18.93;72.39;99382.94;1750206;81;21052;-75
2023/07/01 00:34:46;;;;;;;5.92;4.67;;;;;;;18.91;72.41;99391.55;1750375;82;21044;-75
2023/07/01 00:37:15;;;;;;;6.35;5.03;;;;;;;18.90;72.36;99394.05;1750125;81;21052;-77
2023/07/01 00:39:46;;;;;;;6.45;5.22;;;;;;;18.89;72.38;99397.09;1750144;81;21009;-76
2023/07/01 00:42:16;;;;;;;5.42;4.75;;;;;;;18.89;72.35;99392.38;1750382;80;21060;-76
2023/07/01 00:44:45;;;;;;;7.62;5.22;;;;;;;18.87;72.24;99393.77;1750481;80;21076;-77
2023/07/01 00:47:14;;;;;;;6.42;5.10;;;;;;;18.85;72.29;99394.56;1750552;80;21463;-76
2023/07/01 00:49:44;;;;;;;6.65;5.53;;;;;;;18.86;72.33;99392.10;1751288;81;21467;-77
2023/07/01 00:52:13;;;;;;;9.88;4.90;;;;;;;18.84;72.33;99390.13;1751435;80;21052;-77
2023/07/01 00:54:42;;;;;;;9.50;4.80;;;;;;;18.83;72.25;99392.06;1750311;80;21068;-76
2023/07/01 00:57:11;;;;;;;7.58;4.85;;;;;;;18.83;72.27;99380.13;1750241;80;21107;-76
2023/07/01 00:59:41;;;;;;;7.47;5.12;;;;;;;18.83;72.33;99387.07;1747111;82;21005;-76
2023/07/01 01:02:22;;;;;;;7.83;5.10;;;;;;;18.81;72.26;99379.58;1750201;80;21060;-75
2023/07/01 01:05:10;;;;;;;7.50;5.05;;;;;;;18.80;72.26;99384.84;1750128;80;21468;-76
2023/07/01 01:08:03;;;;;;;6.55;5.17;;;;;;;18.80;72.29;99384.30;1751758;80;21197;-73
2023/07/01 01:10:34;;;;;;;5.33;4.70;;;;;;;18.80;72.29;99381.52;1750424;81;21096;-75
2023/07/01 01:13:04;;;;;;;6.55;4.85;;;;;;;18.79;72.31;99377.63;1750510;81;21032;-76
2023/07/01 01:15:33;;;;;;;6.15;4.87;;;;;;;18.77;72.27;99374.30;1750015;80;21492;-77
2023/07/01 01:18:06;;;;;;;9.55;5.00;;;;;;;18.76;72.31;99376.80;1752560;80;21047;-76
2023/07/01 01:20:39;;;;;;;8.53;5.00;;;;;;;18.75;72.44;99378.74;1751737;80;21100;-76
2023/07/01 01:23:17;;;;;;;8.50;5.03;;;;;;;18.75;72.44;99374.58;1751312;80;21517;-76
2023/07/01 01:25:57;;;;;;;6.80;4.83;;;;;;;18.76;72.43;99379.57;1750293;80;21095;-76
2023/07/01 01:28:27;;;;;;;7.45;5.22;;;;;;;18.75;72.44;99380.68;1750519;80;21163;-76
2023/07/01 01:30:58;;;;;;;7.37;4.83;;;;;;;18.74;72.44;99377.63;1750430;80;21088;-76
2023/07/01 01:33:29;;;;;;;5.78;4.70;;;;;;;18.72;72.57;99378.45;1751503;80;21043;-75
2023/07/01 01:36:33;;;;;;;6.25;4.55;;;;;;;18.71;72.49;99376.23;1747943;81;21090;-74
2023/07/01 01:39:05;;;;;;;11.63;4.83;;;;;;;18.70;72.55;99367.63;1757758;80;21468;-75
2023/07/01 01:41:50;;;;;;;5.67;4.53;;;;;;;18.68;72.59;99370.69;1753090;80;21515;-76
2023/07/01 01:44:27;;;;;;;7.22;4.87;;;;;;;18.69;72.58;99374.30;1751318;80;21463;-73
2023/07/01 01:46:56;;;;;;;6.87;5.10;;;;;;;18.68;72.66;99374.02;1750721;80;21625;-77
2023/07/01 01:49:26;;;;;;;5.22;4.70;;;;;;;18.67;72.83;99371.80;1750266;80;21065;-76
2023/07/01 01:51:55;;;;;;;7.62;4.90;;;;;;;18.64;72.92;99370.96;1753453;80;21488;-75
2023/07/01 01:54:25;;;;;;;8.80;5.30;;;;;;;18.59;73.21;99373.70;1751303;80;21048;-75
2023/07/01 01:56:55;;;;;;;7.78;5.00;;;;;;;18.50;73.61;99376.73;1728457;81;21086;-76
2023/07/01 01:59:25;;;;;;;6.78;5.08;;;;;;;18.40;74.12;99371.72;1751121;81;21569;-75
2023/07/01 02:01:54;;;;;;;10.75;5.17;;;;;;;18.33;74.73;99371.98;1749992;80;21127;-75
2023/07/01 02:04:24;;;;;;;9.60;5.10;;;;;;;18.26;75.13;99371.41;1752261;80;21123;-76
2023/07/01 02:06:55;;;;;;;6.65;5.05;;;;;;;18.22;75.59;99373.90;1751736;81;21080;-76
2023/07/01 02:09:25;;;;;;;7.40;5.10;;;;;;;18.19;75.85;99373.58;1725033;80;21070;-76
2023/07/01 02:11:55;;;;;;;8.45;5.00;;;;;;;18.11;76.15;99383.81;1750069;81;21127;-75
2023/07/01 02:14:24;;;;;;;9.40;5.40;;;;;;;18.04;76.52;99386.28;1750496;80;21072;-74
2023/07/01 02:16:55;;;;;;;8.25;4.83;;;;;;;17.99;76.90;99395.13;1751214;80;21116;-78
2023/07/01 02:19:25;;;;;;;5.53;5.00;;;;;;;17.92;77.10;99399.54;1750300;81;21052;-76
2023/07/01 02:21:55;;;;;;;7.62;5.05;;;;;;;17.84;77.46;99405.59;1751376;80;21108;-75
2023/07/01 02:24:25;;;;;;;8.78;5.37;;;;;;;17.81;77.75;99409.45;1751423;81;21084;-76
2023/07/01 02:26:56;;;;;;;12.35;5.60;;;;;;;17.79;77.88;99407.51;1754541;81;21080;-76
2023/07/01 02:29:27;;;;;;;8.80;5.87;;;;;;;17.79;77.94;99415.27;1750344;81;21056;-77
2023/07/01 02:31:57;;;;;;;8.53;5.37;;;;;;;17.80;78.06;99412.78;1752590;81;21060;-77
2023/07/01 02:34:27;;;;;;;7.70;5.10;;;;;;;17.82;78.01;99413.89;1723749;81;21009;-76
2023/07/01 02:36:57;;;;;;;5.62;4.92;;;;;;;17.84;77.98;99414.46;1750110;80;21036;-75
2023/07/01 02:39:28;;;;;;;9.43;5.33;;;;;;;17.84;77.86;99415.30;1752815;81;21068;-76
2023/07/01 02:41:58;;;;;;;10.30;5.37;;;;;;;17.83;77.87;99410.86;1751466;82;21568;-76
2023/07/01 02:44:28;;;;;;;8.30;5.30;;;;;;;17.83;77.87;99414.17;1750924;81;21025;-77
2023/07/01 02:47:00;;;;;;;6.97;5.20;;;;;;;17.82;77.96;99420.27;1752487;80;21055;-76
2023/07/01 02:49:31;;;;;;;7.03;5.25;;;;;;;17.79;78.24;99422.20;1751862;80;21076;-76
2023/07/01 02:52:00;;;;;;;8.40;5.47;;;;;;;17.73;78.48;99422.72;1752430;80;21480;-77
2023/07/01 02:54:30;;;;;;;8.38;5.25;;;;;;;17.72;78.76;99423.82;1751407;80;21048;-75
2023/07/01 02:56:59;;;;;;;10.20;5.78;;;;;;;17.73;78.93;99424.66;1750181;81;21057;-76
2023/07/01 02:59:31;;;;;;;10.78;5.70;;;;;;;17.75;79.04;99422.45;1751253;81;21100;-76
2023/07/01 03:02:02;;;;;;;9.63;5.78;;;;;;;17.80;78.94;99418.32;1726633;81;21033;-77
2023/07/01 03:04:33;;;;;;;8.60;5.40;;;;;;;17.86;78.81;99417.25;1729986;81;21104;-77
2023/07/01 03:07:05;;;;;;;7.80;5.78;;;;;;;17.92;78.57;99423.09;1750297;81;21084;-76
2023/07/01 03:09:34;;;;;;;10.80;6.35;;;;;;;17.95;78.44;99425.33;1750181;81;21060;-77
2023/07/01 03:12:05;;;;;;;9.03;6.53;;;;;;;17.98;78.33;99429.50;1750354;80;21020;-76
2023/07/01 03:14:34;;;;;;;9.80;6.22;;;;;;;18.00;78.20;99428.13;1752414;80;21048;-77
2023/07/01 03:17:05;;;;;;;9.00;5.58;;;;;;;18.02;78.15;99430.63;1750204;81;21060;-75
2023/07/01 03:19:40;;;;;;;8.75;5.97;;;;;;;18.03;78.19;99433.12;1755586;80;21118;-77
2023/07/01 03:22:09;;;;;;;9.13;5.80;;;;;;;18.04;78.18;99433.41;1750922;80;21056;-76
2023/07/01 03:24:38;;;;;;;9.98;6.00;;;;;;;18.06;78.14;99429.81;1724310;80;21098;-76
2023/07/01 03:27:10;;;;;;;10.50;6.00;;;;;;;18.08;78.23;99431.48;1752865;81;21116;-77
2023/07/01 03:29:41;;;;;;;7.55;5.58;;;;;;;18.09;78.28;99432.59;1662635;85;21216;-76
2023/07/01 03:32:11;;;;;;;8.60;5.47;;;;;;;18.12;78.22;99431.22;1662656;85;21098;-77
2023/07/01 03:34:41;;;;;;;8.33;5.60;;;;;;;18.16;78.13;99422.09;1662915;85;21086;-77
2023/07/01 03:37:11;;;;;;;13.83;7.03;;;;;;;18.21;78.03;99423.53;1661242;85;21513;-76
2023/07/01 03:39:42;;;;;;;10.15;5.58;;;;;;;18.26;78.04;99422.71;1661655;86;21584;-76
2023/07/01 03:42:11;;;;;;;7.83;5.47;;;;;;;18.30;77.91;99420.51;1661801;86;21126;-75
2023/07/01 03:44:41;;;;;;;10.15;5.60;;;;;;;18.34;77.92;99418.86;1661914;86;21172;-76
2023/07/01 03:47:13;;;;;;;6.83;5.55;;;;;;;18.37;78.04;99423.02;1685365;82;21516;-74
2023/07/01 03:49:42;;;;;;;7.92;5.60;;;;;;;18.41;77.84;99433.02;1789105;79;21456;-77
2023/07/01 03:52:11;;;;;;;7.62;5.05;;;;;;;18.43;77.68;99432.20;1787653;80;21076;-77
2023/07/01 03:54:42;;;;;;;11.95;6.15;;;;;;;18.46;77.66;99430.26;1791480;79;21354;-76
2023/07/01 03:57:11;;;;;;;10.58;5.72;;;;;;;18.49;77.63;99430.55;1788303;79;21095;-76
2023/07/01 03:59:40;;;;;;;8.83;6.95;;;;;;;18.55;77.58;99436.39;1765724;80;21184;-77
2023/07/01 04:02:11;;;;;;;14.47;10.40;;;;;;;18.61;77.56;99434.46;1787631;80;21522;-77
2023/07/01 04:04:42;;;;;;;10.88;6.65;;;;;;;18.65;77.59;99435.05;1788429;80;21048;-76
2023/07/01 04:07:14;;;;;;;16.05;6.90;;;;;;;18.71;77.54;99436.45;1787859;79;21080;-76
2023/07/01 04:09:44;;;;;;;13.68;6.35;;;;;;;18.76;77.49;99439.23;1786944;80;21475;-76
2023/07/01 04:12:15;;;;;;;10.88;6.40;;;;;;;18.82;77.62;99445.08;1787440;79;21040;-76
2023/07/01 04:14:44;;;;;;;9.48;6.20;;;;;;;18.87;77.73;99439.01;1787158;79;21167;-75
2023/07/01 04:17:14;;;;;;;9.68;5.83;;;;;;;18.94;77.70;99442.34;1788185;79;21048;-76
2023/07/01 04:19:44;;;;;;;7.45;5.50;;;;;;;19.00;77.50;99443.19;1786946;79;21584;-76
2023/07/01 04:22:15;;;;;;;6.58;5.10;;;;;;;19.08;77.47;99441.25;1787542;80;21063;-75
2023/07/01 04:24:46;;;;;;;8.80;5.92;;;;;;;19.16;77.19;99443.47;1793554;79;21039;-76
2023/07/01 04:27:15;;;;;;;8.40;6.00;;;;;;;19.25;76.52;99450.13;1787559;79;21036;-74
2023/07/01 04:29:44;;;;;;;7.35;5.67;;;;;;;19.31;76.58;99443.47;1788216;79;21510;-76
2023/07/01 04:32:14;;;;;;;7.95;5.22;;;;;;;19.37;76.50;99439.30;1787717;79;21521;-76
2023/07/01 04:34:45;;;;;;;6.72;5.12;;;;;;;19.41;76.14;99444.57;1787785;80;21104;-75
2023/07/01 04:37:16;;;;;;;7.25;5.03;;;;;;;19.49;74.89;99449.01;1787562;79;21060;-75
2023/07/01 04:39:47;;;;;;;6.20;5.50;;;;;;;19.61;74.11;99450.17;1787567;79;21080;-74
2023/07/01 04:42:18;;;;;;;6.90;5.35;;;;;;;19.68;73.74;99447.09;1786829;80;21028;-76
2023/07/01 04:44:53;;;;;;;6.67;5.30;;;;;;;19.76;73.39;99444.58;1793219;79;21123;-76
2023/07/01 04:47:23;;;;;;;8.50;5.17;;;;;;;19.84;73.04;99445.95;1788334;80;21064;-78
2023/07/01 04:49:55;;;;;;;6.70;5.28;;;;;;;19.92;72.47;99448.98;1759065;79;21047;-77
2023/07/01 04:52:25;;;;;;;7.15;5.80;;;;;;;20.01;72.71;99449.23;1787605;80;21067;-76
2023/07/01 04:54:54;;;;;;;8.50;4.95;;;;;;;20.12;71.89;99448.64;1787753;80;21024;-75
2023/07/01 04:57:24;;;;;;;6.37;4.90;;;;;;;20.24;71.48;99448.62;1787517;79;21491;-77
2023/07/01 04:59:53;;;;;;;7.17;4.67;;;;;;;20.39;70.59;99453.32;1787610;80;21000;-76
2023/07/01 05:02:23;;;;;;;5.55;4.85;;;;;;;20.59;69.89;99449.60;1790078;79;21083;-78
2023/07/01 05:04:52;;;;;;;10.30;5.00;;;;;;;20.83;68.88;99445.59;1787803;80;21028;-76
2023/07/01 05:07:22;;;;;;;7.28;4.85;;;;;;;21.16;68.33;99444.78;1788389;79;21071;-76
2023/07/01 05:09:51;;;;;;;5.67;4.62;;;;;;;21.49;67.29;99447.91;1787525;79;21076;-77
2023/07/01 05:12:23;;;;;;;6.10;4.83;;;;;;;21.80;66.02;99447.05;1762866;80;21107;-76
2023/07/01 05:14:53;;;;;;;8.18;4.97;;;;;;;22.10;64.68;99441.72;1786907;79;21063;-76
2023/07/01 05:17:22;;;;;;;5.80;4.83;;;;;;;22.43;63.40;99438.55;1788308;79;21472;-77
2023/07/01 05:19:51;;;;;;;5.58;4.70;;;;;;;22.74;62.13;99439.78;1787669;80;21076;-74
2023/07/01 05:22:20;;;;;;;8.55;5.08;;;;;;;22.94;61.66;99447.09;1790054;79;21072;-76
2023/07/01 05:24:50;;;;;;;8.93;5.40;;;;;;;23.18;61.17;99444.20;1787617;79;21055;-75
2023/07/01 05:27:19;;;;;;;10.63;5.35;;;;;;;23.48;59.86;99445.67;1788474;80;21517;-76
2023/07/01 05:29:49;;;;;;;6.47;4.10;;;;;;;23.78;59.18;99437.91;1787551;79;21458;-75
2023/07/01 05:32:18;;;;;;;5.53;4.37;;;;;;;24.04;57.17;99446.89;1788499;79;21491;-75
2023/07/01 05:34:49;;;;;;;8.58;4.75;;;;;;;24.30;56.24;99440.27;1765693;79;21141;-76
2023/07/01 05:37:19;;;;;;;9.53;4.62;;;;;;;24.54;55.55;99445.64;1788409;79;21440;-76
2023/07/01 05:39:48;;;;;;;9.40;5.45;;;;;;;24.79;55.23;99445.67;1788247;79;21078;-74
2023/07/01 05:42:18;;;;;;;8.00;4.72;;;;;;;25.06;54.64;99449.56;1762361;80;21099;-75
2023/07/01 05:44:47;;;;;;;5.60;4.53;;;;;;;25.34;54.06;99444.09;1787708;79;21131;-75
2023/07/01 05:47:16;;;;;;;5.35;4.37;;;;;;;25.62;52.49;99449.59;1766011;80;21447;-75
2023/07/01 05:49:47;;;;;;;6.17;4.28;;;;;;;25.81;51.94;99447.43;1788548;80;21464;-74
2023/07/01 05:52:17;;;;;;;7.17;4.60;;;;;;;26.03;51.07;99442.37;1787546;80;21091;-77
2023/07/01 05:54:47;;;;;;;6.85;4.60;;;;;;;26.16;50.32;99448.45;1786996;79;21062;-75
2023/07/01 05:57:20;;;;;;;6.22;4.35;;;;;;;26.29;50.09;99442.47;1767097;80;21083;-74
2023/07/01 05:59:50;;;;;;;13.35;4.97;;;;;;;26.50;49.71;99440.16;1788096;79;21471;-76
2023/07/01 06:02:19;;;;;;;4.80;3.90;;;;;;;26.68;48.61;99445.27;1786981;79;21055;-75
2023/07/01 06:04:48;;;;;;;5.10;4.10;;;;;;;26.80;48.37;99439.01;1794897;79;21090;-77
2023/07/01 06:07:19;;;;;;;7.53;4.40;;;;;;;26.97;47.84;99445.22;1782184;79;21550;-76
2023/07/01 06:09:48;;;;;;;5.70;4.20;;;;;;;27.15;47.41;99437.06;1787237;79;21056;-74
2023/07/01 06:12:18;;;;;;;7.03;4.30;;;;;;;27.30;46.51;99443.59;1787781;79;21597;-76
2023/07/01 06:14:47;;;;;;;7.25;4.30;;;;;;;27.46;45.47;99440.55;1787680;80;21055;-75
2023/07/01 06:17:17;;;;;;;11.22;4.60;;;;;;;27.56;45.71;99442.19;1791672;79;21480;-75
2023/07/01 06:19:47;;;;;;;5.08;3.85;;;;;;;27.75;45.40;99437.03;1793429;79;21083;-74
2023/07/01 06:22:17;;;;;;;6.97;4.87;;;;;;;27.80;45.08;99437.44;1788687;79;21044;-75
2023/07/01 06:24:46;;;;;;;4.80;3.92;;;;;;;27.86;44.97;99449.34;1787784;79;21060;-74
2023/07/01 06:27:15;;;;;;;6.42;4.10;;;;;;;28.04;44.24;99439.13;1787761;80;21040;-76
2023/07/01 06:29:46;;;;;;;5.62;3.85;;;;;;;28.29;43.86;99442.20;1788229;79;21107;-74
2023/07/01 06:32:15;;;;;;;8.40;4.30;;;;;;;28.41;42.40;99447.34;1787555;79;21052;-74
2023/07/01 06:34:44;;;;;;;6.00;3.70;;;;;;;28.51;42.08;99436.27;1790047;79;21103;-76
2023/07/01 06:37:14;;;;;;;5.90;3.70;;;;;;;28.67;41.65;99435.95;1788537;79;21048;-76
2023/07/01 06:39:43;;;;;;;5.92;3.70;;;;;;;28.74;41.18;99438.23;1788257;79;21071;-74
2023/07/01 06:42:12;;;;;;;5.85;3.45;;;;;;;28.80;41.26;99438.27;1786711;79;21044;-74
2023/07/01 06:44:42;;;;;;;5.60;3.75;;;;;;;28.98;40.68;99446.05;1786860;79;21474;-74
2023/07/01 06:47:11;;;;;;;4.22;3.20;;;;;;;29.13;40.19;99438.95;1789975;79;21028;-74
2023/07/01 06:49:41;;;;;;;4.67;3.27;;;;;;;29.15;39.58;99431.80;1788224;79;21036;-72
2023/07/01 06:52:11;;;;;;;4.05;3.20;;;;;;;29.16;39.49;99426.98;1790027;79;21482;-74
2023/07/01 06:54:40;;;;;;;5.85;3.10;;;;;;;29.20;39.14;99431.59;1788429;79;21120;-77
2023/07/01 06:57:09;;;;;;;5.60;3.15;;;;;;;29.33;39.46;99432.50;1788453;79;21016;-76
2023/07/01 06:59:39;;;;;;;6.90;3.45;;;;;;;29.47;38.82;99434.47;1790065;79;21484;-76
2023/07/01 07:02:08;;;;;;;4.92;3.77;;;;;;;29.53;38.45;99435.08;1786939;79;21060;-76
2023/07/01 07:04:38;;;;;;;7.97;4.33;;;;;;;29.59;38.65;99432.28;1790036;79;21088;-74
2023/07/01 07:07:07;;;;;;;6.85;3.90;;;;;;;29.69;38.77;99428.19;1788368;79;21071;-75
2023/07/01 07:09:36;;;;;;;6.30;3.87;;;;;;;29.77;38.75;99429.50;1794335;79;21087;-75
2023/07/01 07:12:07;;;;;;;5.37;3.47;;;;;;;29.89;38.00;99423.88;1787943;79;21012;-76
2023/07/01 07:14:36;;;;;;;4.90;3.83;;;;;;;30.03;37.91;99432.67;1789975;79;21513;-74
2023/07/01 07:17:05;;;;;;;6.83;3.30;;;;;;;30.12;37.76;99437.63;1789925;79;21069;-74
2023/07/01 07:19:34;;;;;;;4.87;3.55;;;;;;;30.20;36.94;99446.59;1793211;79;21040;-75
2023/07/01 07:22:04;;;;;;;6.17;3.62;;;;;;;30.26;37.01;99437.52;1786876;80;21020;-74
2023/07/01 07:24:33;;;;;;;11.05;5.10;;;;;;;30.38;36.71;99438.11;1764689;80;21107;-75
2023/07/01 07:27:02;;;;;;;8.90;4.70;;;;;;;30.52;36.60;99432.92;1791649;79;21044;-74
2023/07/01 07:29:33;;;;;;;6.78;3.80;;;;;;;30.67;36.88;99433.45;1786846;79;21103;-76
2023/07/01 07:32:03;;;;;;;5.75;3.40;;;;;;;30.82;36.36;99429.88;1790116;79;21048;-75
2023/07/01 07:34:32;;;;;;;4.15;3.20;;;;;;;30.85;35.79;99433.41;1788463;79;21074;-74
2023/07/01 07:37:00;;;;;;;3.92;3.17;;;;;;;30.87;34.68;99430.47;1787483;79;21099;-74
2023/07/01 07:39:29;;;;;;;3.85;3.37;;;;;;;30.82;35.23;99435.55;1789900;79;21044;-75
2023/07/01 07:41:58;;;;;;;6.42;3.72;;;;;;;30.81;35.25;99427.65;1787049;79;21087;-75
2023/07/01 07:44:27;;;;;;;9.40;3.77;;;;;;;30.86;35.49;99430.23;1788391;80;21171;-76
2023/07/01 07:46:56;;;;;;;5.78;4.10;;;;;;;30.96;36.12;99433.16;1787588;79;21119;-75
2023/07/01 07:49:25;;;;;;;21.60;5.03;;;;;;;31.05;35.78;99423.94;1787835;79;21071;-76
2023/07/01 07:51:54;;;;;;;7.47;3.20;;;;;;;31.05;34.59;99425.94;1794564;79;21526;-75
2023/07/01 07:54:23;;;;;;;5.80;3.25;;;;;;;31.05;34.74;99427.35;1809713;77;21035;-75
2023/07/01 07:56:58;;;;;;;4.53;3.35;;;;;;;31.10;34.86;99426.51;1789826;79;21055;-76
2023/07/01 07:59:23;;;;;;;4.10;3.20;;;;;;;31.23;33.99;99426.53;1802828;79;21079;-73
2023/07/01 08:01:53;;;;;;;4.15;3.22;;;;;;;31.21;34.19;99422.05;1796401;78;21016;-73
2023/07/01 08:04:25;;;;;;;6.35;3.50;;;;;;;31.25;34.40;99425.58;1807641;79;21067;-71
2023/07/01 08:06:55;;;;;;;5.67;3.80;;;;;;;31.35;35.08;99429.31;1806915;79;21648;-73
2023/07/01 08:09:24;;;;;;;8.70;4.20;;;;;;;31.45;34.93;99420.30;1816809;78;21062;-72
2023/07/01 08:11:58;;;;;;;5.83;3.40;;;;;;;31.59;34.16;99422.71;1808914;77;21462;-75
2023/07/01 08:14:26;;;;;;;4.17;3.00;;;;;;;31.45;33.60;99420.30;1821492;77;21040;-72
2023/07/01 08:16:55;;;;;;;5.95;3.10;;;;;;;31.45;33.52;99421.13;1820336;77;21087;-72
2023/07/01 08:19:25;;;;;;;5.33;3.20;;;;;;;31.59;33.39;99421.30;1819548;77;21068;-76
2023/07/01 08:21:54;;;;;;;4.92;3.40;;;;;;;31.67;32.86;99423.14;1820787;77;21237;-73
2023/07/01 08:24:23;;;;;;;5.90;3.08;;;;;;;31.57;32.24;99418.00;1820719;77;21111;-74
2023/07/01 08:26:52;;;;;;;4.12;2.80;;;;;;;31.47;32.79;99422.18;1834700;78;21466;-73
2023/07/01 08:29:22;;;;;;;4.80;2.92;;;;;;;31.55;32.06;99418.37;1817949;77;21059;-73
2023/07/01 08:31:51;;;;;;;5.95;2.95;;;;;;;31.72;31.88;99422.31;1842107;77;21023;-73
2023/07/01 08:34:20;;;;;;;13.62;9.30;;;;;;;31.81;31.70;99413.05;1842190;77;21039;-72
2023/07/01 08:36:48;;;;;;;3.62;2.70;;;;;;;31.93;31.79;99421.27;1841391;78;21114;-69
2023/07/01 08:39:18;;;;;;;3.55;2.58;;;;;;;32.04;31.37;99419.55;1842116;77;21058;-73
2023/07/01 08:42:02;;;;;;;4.67;2.80;;;;;;;32.16;30.60;99422.28;1818742;77;21452;-75
2023/07/01 08:44:32;;;;;;;7.90;2.67;;;;;;;32.10;30.46;99423.75;1821764;77;21064;-73
2023/07/01 08:47:01;;;;;;;7.00;3.15;;;;;;;32.01;30.85;99418.86;1789580;78;21059;-73
2023/07/01 08:49:30;;;;;;;3.75;2.58;;;;;;;31.80;30.67;99422.73;1819170;77;21436;-73
2023/07/01 08:52:06;;;;;;;3.42;2.80;;;;;;;31.57;31.37;99420.24;1819803;79;21044;-74
2023/07/01 08:54:37;;;;;;;7.08;2.90;;;;;;;31.54;31.85;99424.63;1819159;78;21083;-73
2023/07/01 08:57:09;;;;;;;5.08;2.47;;;;;;;31.56;31.34;99428.51;1823153;77;21530;-74
2023/07/01 08:59:38;;;;;;;5.05;2.60;;;;;;;31.60;31.87;99428.02;1819473;77;21051;-75
2023/07/01 09:02:07;;;;;;;4.20;3.00;;;;;;;31.72;31.29;99425.73;1819034;77;21070;-74
2023/07/01 09:04:37;;;;;;;5.28;3.50;;;;;;;31.63;31.62;99420.20;1825953;77;21013;-74
2023/07/01 09:07:08;;;;;;;5.53;3.50;;;;;;;31.57;32.19;99418.83;1798257;78;21092;-73
2023/07/01 09:09:41;;;;;;;4.75;3.08;;;;;;;31.52;33.04;99414.84;1825579;78;21168;-75
2023/07/01 09:12:10;;;;;;;3.87;2.75;;;;;;;31.57;32.93;99420.24;1819968;77;21103;-71
2023/07/01 09:15:06;;;;;;;4.55;2.67;;;;;;;31.66;32.60;99422.31;1819699;79;21014;-70
2023/07/01 09:17:39;;;;;;;4.95;2.87;;;;;;;31.71;32.12;99416.42;1829415;77;21054;-72
2023/07/01 09:20:10;;;;;;;5.20;2.80;;;;;;;31.62;32.14;99407.83;1830677;77;21067;-72
2023/07/01 09:22:43;;;;;;;4.65;2.50;;;;;;;31.42;32.79;99416.19;1814410;77;21086;-73
2023/07/01 09:25:27;;;;;;;3.87;2.52;;;;;;;31.36;32.49;99412.56;1836097;78;21508;-72
2023/07/01 09:27:56;;;;;;;9.93;3.25;;;;;;;31.20;32.78;99413.30;1830514;77;21050;-72
2023/07/01 09:30:26;;;;;;;5.08;2.98;;;;;;;31.11;32.73;99403.28;1836506;78;21007;-75
2023/07/01 09:33:13;;;;;;;4.92;2.87;;;;;;;31.07;32.96;99404.59;1842144;78;21043;-75
2023/07/01 09:35:46;;;;;;;12.30;4.90;;;;;;;31.10;32.27;99400.22;1842396;78;21055;-73
2023/07/01 09:38:16;;;;;;;4.65;2.70;;;;;;;30.90;32.24;99394.98;1842555;77;21458;-74
2023/07/01 09:40:45;;;;;;;6.70;2.40;;;;;;;30.81;32.76;99395.12;1841586;77;21027;-74
2023/07/01 09:43:15;;;;;;;3.02;2.37;;;;;;;30.75;32.53;99401.38;1841476;78;21094;-74
2023/07/01 09:45:54;;;;;;;4.30;2.40;;;;;;;30.73;32.89;99400.32;1813140;77;21063;-72
2023/07/01 09:48:24;;;;;;;4.72;3.10;;;;;;;30.69;32.61;99392.32;1825025;78;21074;-74
2023/07/01 09:50:55;;;;;;;4.10;2.70;;;;;;;30.51;32.18;99399.36;1830019;78;20999;-75
2023/07/01 09:53:25;;;;;;;6.92;2.50;;;;;;;30.07;32.96;99395.48;1811335;77;21082;-76
2023/07/01 09:55:54;;;;;;;3.98;2.30;;;;;;;29.77;33.44;99397.62;1811782;77;21039;-77
2023/07/01 09:58:23;;;;;;;6.10;2.60;;;;;;;29.68;33.63;99401.95;1842544;77;21087;-75
2023/07/01 10:00:52;;;;;;;3.37;2.52;;;;;;;29.69;33.59;99395.72;1842405;78;21027;-75
2023/07/01 10:03:22;;;;;;;2.85;2.50;;;;;;;29.65;33.74;99392.77;1842376;77;21080;-74
2023/07/01 10:05:51;;;;;;;4.03;2.42;;;;;;;29.62;34.41;99388.64;1823442;77;21050;-76
2023/07/01 10:08:22;;;;;;;2.72;2.15;;;;;;;29.61;34.07;99387.58;1841590;77;21104;-77
2023/07/01 10:11:16;;;;;;;4.60;2.87;;;;;;;29.57;34.25;99383.81;1757139;81;21454;-78
2023/07/01 10:13:51;;;;;;;3.58;2.62;;;;;;;29.54;33.73;99374.63;1794625;79;21036;-75
2023/07/01 10:16:20;;;;;;;3.10;2.37;;;;;;;29.42;33.78;99383.03;1772048;81;21058;-77
2023/07/01 10:18:49;;;;;;;5.37;2.40;;;;;;;29.36;34.29;99376.78;1739849;81;21062;-76
2023/07/01 10:21:28;;;;;;;3.75;2.37;;;;;;;29.37;33.86;99377.02;1746535;81;21010;-77
2023/07/01 10:24:00;;;;;;;3.50;2.22;;;;;;;29.27;33.90;99372.63;1745654;81;21124;-77
2023/07/01 10:26:41;;;;;;;3.42;2.62;;;;;;;29.26;34.27;99376.63;1745783;81;21082;-75
2023/07/01 10:29:33;;;;;;;8.20;3.10;;;;;;;29.20;34.21;99379.39;1745159;81;21074;-78
2023/07/01 10:32:18;;;;;;;4.95;2.47;;;;;;;29.03;34.50;99374.74;1745898;81;21034;-79
2023/07/01 10:34:59;;;;;;;4.30;2.27;;;;;;;28.86;34.72;99361.37;1739581;81;21865;-78
2023/07/01 10:37:28;;;;;;;4.25;2.67;;;;;;;28.80;35.01;99359.91;1747029;82;21488;-75
2023/07/01 10:40:00;;;;;;;4.28;2.52;;;;;;;28.81;34.74;99359.56;1745477;82;21422;-74
2023/07/01 10:42:31;;;;;;;8.53;2.92;;;;;;;28.79;35.64;99375.17;1745759;81;21070;-77
2023/07/01 10:45:17;;;;;;;2.85;2.35;;;;;;;28.78;35.85;99359.42;1746815;82;21062;-75
2023/07/01 10:47:56;;;;;;;3.92;2.40;;;;;;;28.71;35.37;99363.62;1746168;81;21113;-72
2023/07/01 10:50:25;;;;;;;2.72;2.27;;;;;;;28.66;35.71;99363.83;1745848;81;21049;-77
2023/07/01 10:53:01;;;;;;;6.72;2.72;;;;;;;28.66;35.83;99362.41;1744559;82;21078;-78
2023/07/01 10:55:50;;;;;;;3.67;2.33;;;;;;;28.67;35.38;99370.28;1728576;82;21100;-75
2023/07/01 10:58:28;;;;;;;4.05;2.40;;;;;;;28.60;35.15;99363.75;1753323;80;21037;-78
2023/07/01 11:00:59;;;;;;;2.85;2.30;;;;;;;28.55;35.21;99371.00;1748339;80;21053;-77
2023/07/01 11:03:39;;;;;;;3.52;2.52;;;;;;;28.55;35.44;99366.78;1745772;81;21089;-77
2023/07/01 11:06:12;;;;;;;4.37;2.27;;;;;;;28.50;35.55;99359.94;1746099;82;21086;-80
2023/07/01 11:08:49;;;;;;;4.70;2.35;;;;;;;28.51;35.31;99370.63;1745286;81;21053;-74
2023/07/01 11:11:27;;;;;;;9.13;2.87;;;;;;;28.50;35.84;99361.34;1721399;82;21497;-75
2023/07/01 11:14:00;;;;;;;2.85;2.37;;;;;;;28.55;36.03;99361.72;1756342;81;21113;-70
2023/07/01 11:16:29;;;;;;;4.37;2.50;;;;;;;28.53;36.22;99360.66;1762313;79;21094;-71
2023/07/01 11:19:07;;;;;;;3.08;2.42;;;;;;;28.54;36.23;99357.26;1728952;82;21030;-79
2023/07/01 11:21:37;;;;;;;3.72;2.70;;;;;;;28.57;36.22;99360.22;1746530;81;21050;-69
2023/07/01 11:24:08;;;;;;;4.97;2.77;;;;;;;28.57;36.22;99360.22;1745466;82;21046;-75
2023/07/01 11:26:40;;;;;;;4.20;2.92;;;;;;;28.56;36.35;99363.38;1745723;81;21090;-75
2023/07/01 11:29:15;;;;;;;4.05;2.70;;;;;;;28.51;36.24;99369.22;1727016;82;21042;-72
2023/07/01 11:31:45;;;;;;;5.53;3.20;;;;;;;28.46;36.37;99361.78;1744841;81;21026;-75
2023/07/01 11:34:17;;;;;;;3.75;3.00;;;;;;;28.28;36.92;99351.22;1746295;81;21038;-71
2023/07/01 11:36:49;;;;;;;4.45;3.08;;;;;;;28.29;36.96;99350.63;1755616;79;21089;-77
2023/07/01 11:39:19;;;;;;;3.42;2.60;;;;;;;28.29;36.96;99350.63;1773120;80;21090;-75
2023/07/01 11:41:53;;;;;;;4.60;3.00;;;;;;;28.29;37.02;99351.45;1740329;81;21097;-76
2023/07/01 11:44:25;;;;;;;6.97;2.67;;;;;;;28.29;36.88;99351.45;1767506;80;21069;-78
2023/07/01 11:46:55;;;;;;;7.22;2.87;;;;;;;28.29;36.51;99345.00;1790044;78;21049;-78
2023/07/01 11:49:27;;;;;;;5.83;2.80;;;;;;;28.32;36.39;99345.72;1819887;77;21096;-78
2023/07/01 11:52:00;;;;;;;4.65;2.70;;;;;;;28.29;35.88;99340.77;1819078;77;21072;-72